createdAt,value
2022-11-27T00:00:57.618Z,90.70
2022-11-27T00:03:24.594Z,92.00
2022-11-27T00:05:58.796Z,93.70
2022-11-27T00:08:25.593Z,91.70
2022-11-27T00:10:52.306Z,90.70
2022-11-27T00:13:19.418Z,90.50
2022-11-27T00:15:46.313Z,90.30
2022-11-27T00:18:13.107Z,90.30
2022-11-27T00:20:39.864Z,90.10
2022-11-27T00:23:06.515Z,90.20
2022-11-27T00:25:33.313Z,90.20
2022-11-27T00:27:59.978Z,90.20
2022-11-27T00:30:26.716Z,90.20
2022-11-27T00:32:53.364Z,90.10
2022-11-27T00:35:19.986Z,90.20
2022-11-27T00:37:46.727Z,90.20
2022-11-27T00:40:13.806Z,90.20
2022-11-27T00:42:40.461Z,90.10
2022-11-27T00:45:07.554Z,90.10
2022-11-27T00:47:34.218Z,90.20
2022-11-27T00:50:00.835Z,90.10
2022-11-27T00:52:27.476Z,92.80
2022-11-27T00:54:54.075Z,94.40
2022-11-27T00:57:20.770Z,94.70
2022-11-27T00:59:47.449Z,94.80
2022-11-27T01:02:14.193Z,94.20
2022-11-27T01:04:41.053Z,92.70
2022-11-27T01:07:08.021Z,91.20
2022-11-27T01:09:34.788Z,90.80
2022-11-27T01:12:04.985Z,90.60
2022-11-27T01:14:31.726Z,90.70
2022-11-27T01:16:58.985Z,90.70
2022-11-27T01:19:25.630Z,90.50
2022-11-27T01:21:52.457Z,90.60
2022-11-27T01:24:19.130Z,90.60
2022-11-27T01:26:46.445Z,90.50
2022-11-27T01:29:13.156Z,90.70
2022-11-27T01:31:39.992Z,90.70
2022-11-27T01:34:09.766Z,90.60
2022-11-27T01:36:42.628Z,90.70
2022-11-27T01:39:16.440Z,90.50
2022-11-27T01:41:43.368Z,90.70
2022-11-27T01:44:25.361Z,90.50
2022-11-27T01:47:00.171Z,90.50
2022-11-27T01:49:32.460Z,90.60
2022-11-27T01:52:11.160Z,90.50
2022-11-27T01:54:41.921Z,90.60
2022-11-27T01:57:17.901Z,90.50
2022-11-27T01:59:46.364Z,90.50
2022-11-27T02:02:13.357Z,90.70
2022-11-27T02:04:40.376Z,90.50
2022-11-27T02:07:07.216Z,90.80
2022-11-27T02:09:34.372Z,90.40
2022-11-27T02:12:25.272Z,90.50
2022-11-27T02:15:08.023Z,90.60
2022-11-27T02:17:40.688Z,90.40
2022-11-27T02:20:13.142Z,90.50
2022-11-27T02:22:47.520Z,90.50
2022-11-27T02:25:53.237Z,90.40
2022-11-27T02:28:37.960Z,90.50
2022-11-27T02:31:21.296Z,90.50
2022-11-27T02:33:55.957Z,90.40
2022-11-27T02:36:30.141Z,90.40
2022-11-27T02:39:08.779Z,90.30
2022-11-27T02:41:49.457Z,90.30
2022-11-27T02:44:17.778Z,90.30
2022-11-27T02:46:47.000Z,90.30
2022-11-27T02:49:17.787Z,90.30
2022-11-27T02:51:52.418Z,90.30
2022-11-27T02:54:24.983Z,90.30
2022-11-27T02:56:55.974Z,90.20
2022-11-27T02:59:25.013Z,90.20
2022-11-27T03:02:01.160Z,90.20
2022-11-27T03:04:34.615Z,90.10
2022-11-27T03:07:07.798Z,90.10
2022-11-27T03:09:38.692Z,90.30
2022-11-27T03:12:08.810Z,90.10
2022-11-27T03:14:38.245Z,90.10
2022-11-27T03:17:29.013Z,90.10
2022-11-27T03:20:08.700Z,90.00
2022-11-27T03:22:35.496Z,90.10
2022-11-27T03:25:02.229Z,90.10
2022-11-27T03:27:46.056Z,90.10
2022-11-27T03:30:13.721Z,90.10
2022-11-27T03:32:40.577Z,90.10
2022-11-27T03:35:11.179Z,90.00
2022-11-27T03:37:38.072Z,90.00
2022-11-27T03:40:06.713Z,89.80
2022-11-27T03:42:47.759Z,89.90
2022-11-27T03:45:21.716Z,90.00
2022-11-27T03:48:07.254Z,90.10
2022-11-27T03:50:55.257Z,89.70
2022-11-27T03:53:40.332Z,90.00
2022-11-27T03:56:31.876Z,89.80
2022-11-27T03:59:04.352Z,89.50
2022-11-27T04:01:31.632Z,89.50
2022-11-27T04:03:58.481Z,89.40
2022-11-27T04:06:25.247Z,89.50
2022-11-27T04:08:52.622Z,89.50
2022-11-27T04:11:19.472Z,89.50
2022-11-27T04:13:46.171Z,89.50
2022-11-27T04:16:12.997Z,89.50
2022-11-27T04:18:39.995Z,89.50
2022-11-27T04:21:06.723Z,89.50
2022-11-27T04:23:33.521Z,89.60
2022-11-27T04:26:00.322Z,89.60
2022-11-27T04:28:27.067Z,89.60
2022-11-27T04:30:54.740Z,89.70
2022-11-27T04:33:21.658Z,90.00
2022-11-27T04:35:49.197Z,90.00
2022-11-27T04:38:16.173Z,90.30
2022-11-27T04:40:42.978Z,90.70
2022-11-27T04:43:09.978Z,90.40
2022-11-27T04:45:37.036Z,90.20
2022-11-27T04:48:04.733Z,90.00
2022-11-27T04:50:31.396Z,91.40
2022-11-27T04:52:58.152Z,92.70
2022-11-27T04:55:24.908Z,91.70
2022-11-27T04:57:51.608Z,90.80
2022-11-27T05:00:18.854Z,90.70
2022-11-27T05:02:45.543Z,91.00
2022-11-27T05:05:12.529Z,90.70
2022-11-27T05:07:39.315Z,90.20
2022-11-27T05:10:06.899Z,90.10
2022-11-27T05:12:33.572Z,90.00
2022-11-27T05:15:04.203Z,89.90
2022-11-27T05:17:31.728Z,90.00
2022-11-27T05:19:58.384Z,89.90
2022-11-27T05:22:25.062Z,89.90
2022-11-27T05:24:51.699Z,89.90
2022-11-27T05:27:18.334Z,90.00
2022-11-27T05:29:44.923Z,89.80
2022-11-27T05:32:11.570Z,91.40
2022-11-27T05:34:38.509Z,92.80
2022-11-27T05:37:05.360Z,92.90
2022-11-27T05:39:32.007Z,92.70
2022-11-27T05:41:58.775Z,92.30
2022-11-27T05:44:26.767Z,92.10
2022-11-27T05:46:53.496Z,91.90
2022-11-27T05:49:20.256Z,92.30
2022-11-27T05:51:51.427Z,92.10
2022-11-27T05:54:18.662Z,91.90
2022-11-27T05:56:45.463Z,91.80
2022-11-27T05:59:12.747Z,91.70
2022-11-27T06:01:39.533Z,91.70
2022-11-27T06:04:06.401Z,91.60
2022-11-27T06:06:33.082Z,91.50
2022-11-27T06:09:00.356Z,91.50
2022-11-27T06:11:27.119Z,91.70
2022-11-27T06:13:53.749Z,91.70
2022-11-27T06:16:22.915Z,91.70
2022-11-27T06:18:54.040Z,91.70
2022-11-27T06:21:22.325Z,91.70
2022-11-27T06:23:49.163Z,91.70
2022-11-27T06:26:21.494Z,91.60
2022-11-27T06:28:49.755Z,91.40
2022-11-27T06:31:19.513Z,91.10
2022-11-27T06:33:47.580Z,91.20
2022-11-27T06:36:14.216Z,91.10
2022-11-27T06:38:40.951Z,90.90
2022-11-27T06:41:13.578Z,91.00
2022-11-27T06:43:40.628Z,91.00
2022-11-27T06:46:11.203Z,90.90
2022-11-27T06:48:37.945Z,90.80
2022-11-27T06:51:06.682Z,90.70
2022-11-27T06:53:35.755Z,90.90
2022-11-27T06:56:07.230Z,90.90
2022-11-27T06:58:33.869Z,90.80
2022-11-27T07:01:02.721Z,90.80
2022-11-27T07:03:29.615Z,90.80
2022-11-27T07:05:59.767Z,90.80
2022-11-27T07:08:26.420Z,90.70
2022-11-27T07:10:53.058Z,90.50
2022-11-27T07:13:19.732Z,90.50
2022-11-27T07:15:46.624Z,90.50
2022-11-27T07:18:13.395Z,90.80
2022-11-27T07:20:40.042Z,90.60
2022-11-27T07:23:06.680Z,90.60
2022-11-27T07:25:33.324Z,90.50
2022-11-27T07:28:00.058Z,90.50
2022-11-27T07:30:26.687Z,90.50
2022-11-27T07:32:53.336Z,90.50
2022-11-27T07:35:20.077Z,90.30
2022-11-27T07:37:46.713Z,90.40
2022-11-27T07:40:15.989Z,90.50
2022-11-27T07:42:45.068Z,90.40
2022-11-27T07:45:14.487Z,90.50
2022-11-27T07:47:41.241Z,90.50
2022-11-27T07:50:09.092Z,90.50
2022-11-27T07:52:41.030Z,90.30
2022-11-27T07:55:09.013Z,90.30
2022-11-27T07:57:35.627Z,90.20
2022-11-27T08:00:02.267Z,90.30
2022-11-27T08:02:28.976Z,90.40
2022-11-27T08:04:55.665Z,90.10
2022-11-27T08:07:28.683Z,90.20
2022-11-27T08:09:57.544Z,90.20
2022-11-27T08:16:13.146Z,90.20
2022-11-27T08:19:13.001Z,90.20
2022-11-27T08:25:28.595Z,90.10
2022-11-27T08:28:51.353Z,90.00
2022-11-27T08:31:56.707Z,90.10
2022-11-27T08:35:36.670Z,90.10
2022-11-27T08:41:45.732Z,90.20
2022-11-27T08:47:42.990Z,90.30
2022-11-27T08:50:46.126Z,90.20
2022-11-27T08:53:50.793Z,90.30
2022-11-27T08:56:42.073Z,90.40
2022-11-27T08:59:44.616Z,90.30
2022-11-27T09:02:30.765Z,90.40
2022-11-27T09:05:10.014Z,90.20
2022-11-27T09:15:11.721Z,90.20
2022-11-27T09:24:32.994Z,90.40
2022-11-27T09:27:57.254Z,90.40
2022-11-27T09:31:31.429Z,90.30
2022-11-27T09:38:13.460Z,90.40
2022-11-27T09:55:24.957Z,90.40
2022-11-27T09:59:16.413Z,90.40
2022-11-27T10:05:39.677Z,90.20
2022-11-27T10:12:58.580Z,90.20
2022-11-27T10:16:14.358Z,90.10
2022-11-27T10:19:01.783Z,90.10
2022-11-27T10:31:34.366Z,90.10
2022-11-27T10:38:12.439Z,90.20
2022-11-27T10:41:47.523Z,90.20
2022-11-27T10:48:37.599Z,90.20
2022-11-27T11:02:03.475Z,90.10
2022-11-27T11:08:39.773Z,90.20
2022-11-27T11:12:01.087Z,90.20
2022-11-27T11:14:51.517Z,90.20
2022-11-27T11:21:08.931Z,90.20
2022-11-27T11:24:15.339Z,90.10
2022-11-27T11:27:24.344Z,90.00
2022-11-27T11:30:53.642Z,90.10
2022-11-27T11:34:39.643Z,90.40
2022-11-27T11:38:23.975Z,90.30
2022-11-27T11:51:34.391Z,90.50
2022-11-27T12:02:12.131Z,90.40
2022-11-27T12:05:08.875Z,90.60
2022-11-27T12:12:05.136Z,90.50
2022-11-27T12:14:49.809Z,90.60
2022-11-27T12:18:16.054Z,90.70
2022-11-27T12:21:42.202Z,90.70
2022-11-27T12:40:10.565Z,89.60
2022-11-27T12:47:01.200Z,89.50
2022-11-27T12:50:18.232Z,89.50
2022-11-27T12:53:25.164Z,89.50
2022-11-27T12:56:06.676Z,89.50
2022-11-27T12:58:39.738Z,89.50
2022-11-27T13:01:30.636Z,89.70
2022-11-27T13:04:13.526Z,89.70
2022-11-27T13:07:08.986Z,89.60
2022-11-27T13:09:42.560Z,89.50
2022-11-27T13:12:17.168Z,89.60
2022-11-27T13:14:52.878Z,89.60
2022-11-27T13:17:19.837Z,89.30
2022-11-27T13:19:49.499Z,89.20
2022-11-27T13:22:32.039Z,89.30
2022-11-27T13:25:01.685Z,89.30
2022-11-27T13:27:32.600Z,89.20
2022-11-27T13:30:16.262Z,89.30
2022-11-27T13:32:53.019Z,89.20
2022-11-27T13:35:22.192Z,89.20
2022-11-27T13:37:55.548Z,89.40
2022-11-27T13:40:30.317Z,89.20
2022-11-27T13:43:03.556Z,89.30
2022-11-27T13:45:33.885Z,89.20
2022-11-27T13:48:05.207Z,89.20
2022-11-27T13:50:45.473Z,89.20
2022-11-27T13:53:12.801Z,89.20
2022-11-27T13:55:52.237Z,89.40
2022-11-27T13:58:29.370Z,89.20
2022-11-27T14:00:56.156Z,89.10
2022-11-27T14:03:28.896Z,89.10
2022-11-27T14:05:57.000Z,89.20
2022-11-27T14:08:35.294Z,89.40
2022-11-27T14:11:14.455Z,89.10
2022-11-27T14:13:49.591Z,89.10
2022-11-27T14:16:31.379Z,89.10
2022-11-27T14:19:02.840Z,89.30
2022-11-27T14:21:38.205Z,89.30
2022-11-27T14:24:23.566Z,89.20
2022-11-27T14:26:50.284Z,89.10
2022-11-27T14:29:19.420Z,89.20
2022-11-27T14:31:55.201Z,89.20
2022-11-27T14:34:40.274Z,89.10
2022-11-27T14:37:19.359Z,89.00
2022-11-27T14:39:45.954Z,89.10
2022-11-27T14:42:29.316Z,89.00
2022-11-27T14:45:07.072Z,89.00
2022-11-27T14:47:34.395Z,89.20
2022-11-27T14:50:01.906Z,89.10
2022-11-27T14:52:29.030Z,89.10
2022-11-27T14:54:56.957Z,89.10
2022-11-27T14:57:26.747Z,89.00
2022-11-27T15:00:26.917Z,89.00
2022-11-27T15:02:54.287Z,89.00
2022-11-27T15:05:24.726Z,89.00
2022-11-27T15:07:54.400Z,89.50
2022-11-27T15:10:41.663Z,90.10
2022-11-27T15:13:21.288Z,90.40
2022-11-27T15:15:55.830Z,90.70
2022-11-27T15:18:24.136Z,90.40
2022-11-27T15:20:51.790Z,90.30
2022-11-27T15:23:31.199Z,90.20
2022-11-27T15:26:05.001Z,90.20
2022-11-27T15:28:46.823Z,90.10
2022-11-27T15:31:32.796Z,90.00
2022-11-27T15:34:02.250Z,90.10
2022-11-27T15:36:43.520Z,89.90
2022-11-27T15:39:32.298Z,90.20
2022-11-27T15:42:01.575Z,90.10
2022-11-27T15:44:32.163Z,89.90
2022-11-27T15:47:01.449Z,89.90
2022-11-27T15:49:28.583Z,89.90
2022-11-27T15:51:56.607Z,89.90
2022-11-27T15:54:23.846Z,89.90
2022-11-27T15:56:50.576Z,89.80
2022-11-27T15:59:20.381Z,89.80
2022-11-27T16:01:47.364Z,89.80
2022-11-27T16:04:14.129Z,89.90
2022-11-27T16:06:40.812Z,89.80
2022-11-27T16:09:07.487Z,89.70
2022-11-27T16:11:34.524Z,89.90
2022-11-27T16:14:01.192Z,90.30
2022-11-27T16:16:28.153Z,90.20
2022-11-27T16:19:01.897Z,90.00
2022-11-27T16:21:30.181Z,89.80
2022-11-27T16:24:02.635Z,89.80
2022-11-27T16:26:29.759Z,89.80
2022-11-27T16:28:56.846Z,89.80
2022-11-27T16:31:24.626Z,89.80
2022-11-27T16:33:52.348Z,89.80
2022-11-27T16:36:20.412Z,89.70
2022-11-27T16:38:47.159Z,89.70
2022-11-27T16:41:17.358Z,89.80
2022-11-27T16:43:46.713Z,89.80
2022-11-27T16:46:16.004Z,89.90
2022-11-27T16:48:44.334Z,89.80
2022-11-27T16:51:23.212Z,89.80
2022-11-27T16:53:52.608Z,89.80
2022-11-27T16:56:23.883Z,89.80
2022-11-27T16:58:51.357Z,89.80
2022-11-27T17:01:29.430Z,89.90
2022-11-27T17:03:56.742Z,89.70
2022-11-27T17:06:27.150Z,89.80
2022-11-27T17:08:55.293Z,89.80
2022-11-27T17:11:24.844Z,89.80
2022-11-27T17:13:53.032Z,89.80
2022-11-27T17:16:20.408Z,89.70
2022-11-27T17:18:47.465Z,90.00
2022-11-27T17:21:21.245Z,91.40
2022-11-27T17:23:47.861Z,91.80
2022-11-27T17:26:17.221Z,92.20
2022-11-27T17:28:44.414Z,92.40
2022-11-27T17:31:18.288Z,92.20
2022-11-27T17:33:45.948Z,91.40
2022-11-27T17:36:12.772Z,91.00
2022-11-27T17:38:39.609Z,90.80
2022-11-27T17:41:14.363Z,90.80
2022-11-27T17:43:42.092Z,90.50
2022-11-27T17:46:18.315Z,90.50
2022-11-27T17:48:45.036Z,90.70
2022-11-27T17:51:12.105Z,90.50
2022-11-27T17:53:38.885Z,90.70
2022-11-27T17:56:06.371Z,90.40
2022-11-27T17:58:33.314Z,90.40
2022-11-27T18:01:00.601Z,90.40
2022-11-27T18:03:30.415Z,90.40
2022-11-27T18:05:57.086Z,90.40
2022-11-27T18:08:23.920Z,90.30
2022-11-27T18:10:50.629Z,90.30
2022-11-27T18:13:17.278Z,90.40
2022-11-27T18:15:43.992Z,90.40
2022-11-27T18:18:10.736Z,90.40
2022-11-27T18:20:37.516Z,90.40
2022-11-27T18:23:04.591Z,90.40
2022-11-27T18:25:32.425Z,90.40
2022-11-27T18:27:59.378Z,90.40
2022-11-27T18:30:26.180Z,90.40
2022-11-27T18:32:52.968Z,90.40
2022-11-27T18:35:19.790Z,90.40
2022-11-27T18:37:46.584Z,90.30
2022-11-27T18:40:13.365Z,90.30
2022-11-27T18:42:40.010Z,90.30
2022-11-27T18:45:20.190Z,90.30
2022-11-27T18:47:54.347Z,90.50
2022-11-27T18:50:24.353Z,90.40
2022-11-27T18:52:54.254Z,90.30
2022-11-27T18:55:21.259Z,90.30
2022-11-27T18:57:47.903Z,90.50
2022-11-27T19:00:15.070Z,90.50
2022-11-27T19:02:41.748Z,90.30
2022-11-27T19:05:09.721Z,90.10
2022-11-27T19:07:36.450Z,90.00
2022-11-27T19:10:03.348Z,90.00
2022-11-27T19:12:29.936Z,89.80
2022-11-27T19:14:56.763Z,89.80
2022-11-27T19:17:26.789Z,90.00
2022-11-27T19:19:57.556Z,89.80
2022-11-27T19:22:24.362Z,89.70
2022-11-27T19:24:51.078Z,89.70
2022-11-27T19:27:17.741Z,89.60
2022-11-27T19:29:44.501Z,89.60
2022-11-27T19:32:11.210Z,89.60
2022-11-27T19:34:37.875Z,89.60
2022-11-27T19:37:04.488Z,89.60
2022-11-27T19:39:31.173Z,89.60
2022-11-27T19:41:58.007Z,89.50
2022-11-27T19:44:24.821Z,89.60
2022-11-27T19:46:51.565Z,89.60
2022-11-27T19:49:18.661Z,89.50
2022-11-27T19:51:46.161Z,89.50
2022-11-27T19:54:14.079Z,89.50
2022-11-27T19:56:42.209Z,89.50
2022-11-27T19:59:10.114Z,90.90
2022-11-27T20:01:38.061Z,92.60
2022-11-27T20:04:05.953Z,92.40
2022-11-27T20:06:32.987Z,91.20
2022-11-27T20:09:01.976Z,90.40
2022-11-27T20:11:34.977Z,90.00
2022-11-27T20:14:04.145Z,89.80
2022-11-27T20:16:31.500Z,89.70
2022-11-27T20:18:58.249Z,89.70
2022-11-27T20:21:25.968Z,89.60
2022-11-27T20:23:53.905Z,89.40
2022-11-27T20:26:24.651Z,89.60
2022-11-27T20:28:53.041Z,89.60
2022-11-27T20:31:25.761Z,89.60
2022-11-27T20:33:54.147Z,89.50
2022-11-27T20:36:23.022Z,89.50
2022-11-27T20:38:50.907Z,89.50
2022-11-27T20:41:19.419Z,89.40
2022-11-27T20:43:46.512Z,89.40
2022-11-27T20:46:14.883Z,89.40
2022-11-27T20:48:42.487Z,89.40
2022-11-27T20:51:13.639Z,89.50
2022-11-27T20:53:41.657Z,89.40
2022-11-27T20:56:10.371Z,89.50
2022-11-27T20:58:39.109Z,89.40
2022-11-27T21:01:32.925Z,89.40
2022-11-27T21:04:03.059Z,89.40
2022-11-27T21:06:31.499Z,89.40
2022-11-27T21:09:02.484Z,89.40
2022-11-27T21:11:31.841Z,89.50
2022-11-27T21:14:01.290Z,89.40
2022-11-27T21:16:30.130Z,89.40
2022-11-27T21:19:02.130Z,89.40
2022-11-27T21:21:29.320Z,89.40
2022-11-27T21:23:56.658Z,89.50
2022-11-27T21:26:24.124Z,89.40
2022-11-27T21:28:51.201Z,89.40
2022-11-27T21:31:21.036Z,89.40
2022-11-27T21:33:52.582Z,89.40
2022-11-27T21:36:21.522Z,89.40
2022-11-27T21:38:48.359Z,89.70
2022-11-27T21:41:17.326Z,90.40
2022-11-27T21:43:45.156Z,90.70
2022-11-27T21:46:17.853Z,90.20
2022-11-27T21:48:46.016Z,89.90
2022-11-27T21:51:15.154Z,89.80
2022-11-27T21:53:46.242Z,89.70
2022-11-27T21:56:16.015Z,89.60
2022-11-27T21:58:42.901Z,89.70
2022-11-27T22:01:12.735Z,89.60
2022-11-27T22:03:42.837Z,89.70
2022-11-27T22:06:15.079Z,89.60
2022-11-27T22:08:43.846Z,89.60
2022-11-27T22:11:13.539Z,89.60
2022-11-27T22:13:43.888Z,89.60
2022-11-27T22:16:16.830Z,89.60
2022-11-27T22:18:43.936Z,89.50
2022-11-27T22:21:12.444Z,89.60
2022-11-27T22:23:40.296Z,89.60
2022-11-27T22:26:09.891Z,89.50
2022-11-27T22:28:37.554Z,89.40
2022-11-27T22:31:12.640Z,89.40
2022-11-27T22:33:41.132Z,89.40
2022-11-27T22:36:15.299Z,89.30
2022-11-27T22:38:43.059Z,89.30
2022-11-27T22:41:10.522Z,89.20
2022-11-27T22:43:38.253Z,89.10
2022-11-27T22:46:07.002Z,89.20
2022-11-27T22:48:34.156Z,89.20
2022-11-27T22:51:01.285Z,89.20
2022-11-27T22:53:28.109Z,89.20
2022-11-27T22:55:54.937Z,89.20
2022-11-27T22:58:21.859Z,89.20
2022-11-27T23:00:55.417Z,89.20
2022-11-27T23:03:22.143Z,89.30
2022-11-27T23:05:49.047Z,89.20
2022-11-27T23:08:15.846Z,89.10
2022-11-27T23:10:42.636Z,89.20
2022-11-27T23:13:09.402Z,89.20
2022-11-27T23:15:36.004Z,89.20
2022-11-27T23:18:02.791Z,89.20
2022-11-27T23:20:29.374Z,89.10
2022-11-27T23:22:57.195Z,89.10
2022-11-27T23:25:25.081Z,89.20
2022-11-27T23:27:51.750Z,89.10
2022-11-27T23:30:18.494Z,89.20
2022-11-27T23:32:45.131Z,89.20
2022-11-27T23:35:11.842Z,89.10
2022-11-27T23:37:38.536Z,89.40
2022-11-27T23:40:05.904Z,89.50
2022-11-27T23:42:35.018Z,89.50
2022-11-27T23:45:01.935Z,89.50
2022-11-27T23:47:28.619Z,89.40
2022-11-27T23:49:55.399Z,89.60
2022-11-27T23:52:22.205Z,89.50
2022-11-27T23:54:48.865Z,89.60
2022-11-27T23:57:15.509Z,90.80
2022-11-27T23:59:42.169Z,92.20
